Rovinari 25 — YP3087 — position and weather

sailwx.info

Track history (hours):
 
Tides and Currents Weather Stations Pressure Air Temp Water Temp Dewpoint Dewpoint Depression Visibility Wind Speed Wind Dir Waves Ship Positions

Rovinari 25

Last reported at 2018-Jul-23 02:00 UTC. Time now 2018-Jul-23 02:09 UTC.
Position N 44°08' E 028°39'.

Length 21 m.

Type: Port tender. MMSI: 264163087.

Date/timePositionNaut miles runAvg speedWind from/ knotsBaromVisibWave heightAir tempDewpointWater temp
2018-Jul-23 02:00N 44°08' E 028°39'1 1.4
2018-Jul-23 01:30N 44°09' E 028°39'0 0.0
2018-Jul-23 01:00N 44°09' E 028°39'0 0.0
2018-Jul-23 00:30N 44°09' E 028°39'0 0.0
2018-Jul-23 00:00N 44°09' E 028°39'0 0.0
2018-Jul-22 23:30N 44°09' E 028°39'0 0.0
2018-Jul-22 23:00N 44°09' E 028°39'0 0.0
2018-Jul-22 22:30N 44°09' E 028°39'0 0.0
2018-Jul-22 22:00N 44°09' E 028°39'0 0.0
2018-Jul-22 21:30N 44°09' E 028°39'0 0.0
2018-Jul-22 21:00N 44°09' E 028°39'0 0.0
2018-Jul-22 20:30N 44°09' E 028°39'0 0.0
2018-Jul-22 19:59N 44°09' E 028°39'0 0.5
2018-Jul-22 19:30N 44°09' E 028°39'0 0.5
2018-Jul-22 18:59N 44°09' E 028°39'0 0.0
2018-Jul-22 18:26N 44°09' E 028°39'0 0.2
2018-Jul-22 17:59N 44°09' E 028°39'1 1.4
2018-Jul-22 17:30N 44°08' E 028°39'1 2.0
2018-Jul-22 16:58N 44°07' E 028°39'0 0.0
2018-Jul-22 16:28N 44°07' E 028°39'2 3.6
2018-Jul-22 16:00N 44°09' E 028°40'1 0.5
2018-Jul-22 14:58N 44°09' E 028°39'0 1.0
2018-Jul-22 14:28N 44°09' E 028°39'1 1.7
2018-Jul-22 14:00N 44°08' E 028°40'2 4.3
2018-Jul-22 13:29N 44°06' E 028°39'0 0.1
2018-Jul-22 12:59N 44°06' E 028°39'0 0.0
2018-Jul-22 12:30N 44°06' E 028°39'1 1.9
2018-Jul-22 11:58N 44°07' E 028°39'0 0.5
2018-Jul-22 11:30N 44°07' E 028°39'0 0.2
2018-Jul-22 10:58N 44°07' E 028°39'1 2.5
2018-Jul-22 10:30N 44°08' E 028°39'1 1.8
2018-Jul-22 09:58N 44°09' E 028°39'0 0.8
2018-Jul-22 09:30N 44°09' E 028°39'2 3.0
2018-Jul-22 09:00N 44°08' E 028°39'0 0.8
2018-Jul-22 08:28N 44°07' E 028°39'0 0.4
2018-Jul-22 08:00N 44°08' E 028°39'1 1.9
2018-Jul-22 07:30N 44°08' E 028°39'0 0.9
2018-Jul-22 07:00N 44°08' E 028°39'2 3.2
2018-Jul-22 06:28N 44°06' E 028°39'0 0.0
2018-Jul-22 05:58N 44°06' E 028°39'0 0.0
2018-Jul-22 05:28N 44°06' E 028°39'0 0.0
2018-Jul-22 04:58N 44°06' E 028°39'1 2.2
2018-Jul-22 04:30N 44°07' E 028°40'1 2.1
2018-Jul-22 04:00N 44°06' E 028°39'1 1.7
2018-Jul-22 03:30N 44°07' E 028°40'0 0.2
2018-Jul-22 03:00N 44°07' E 028°40'0 0.3
2018-Jul-22 02:27N 44°06' E 028°40'0 0.3
2018-Jul-22 02:00N 44°06' E 028°40'1 2.0
2018-Jul-22 01:30N 44°06' E 028°39'3 5.0
2018-Jul-22 01:00N 44°09' E 028°40'1 1.3
2018-Jul-22 00:28N 44°09' E 028°39'0 0.9
2018-Jul-21 23:58N 44°09' E 028°39'1 2.1
2018-Jul-21 23:30N 44°09' E 028°40'2 3.7
2018-Jul-21 23:00N 44°07' E 028°39'1 1.7
2018-Jul-21 22:29N 44°06' E 028°39'0 0.0
2018-Jul-21 21:59N 44°06' E 028°39'0 0.0
2018-Jul-21 21:23N 44°06' E 028°39'0 0.0
2018-Jul-21 20:56N 44°06' E 028°39'0 0.0
2018-Jul-21 20:29N 44°06' E 028°39'0 0.0
2018-Jul-21 19:59N 44°06' E 028°39'1 1.9
2018-Jul-21 19:30N 44°07' E 028°39'1 2.3
2018-Jul-21 19:01N 44°08' E 028°39'1 1.2
2018-Jul-21 18:28N 44°09' E 028°39'1 2.3
2018-Jul-21 18:00N 44°08' E 028°39'2 3.0
2018-Jul-21 17:29N 44°06' E 028°39'0 0.0
2018-Jul-21 16:59N 44°06' E 028°39'0 0.9
2018-Jul-21 16:30N 44°07' E 028°39'0 0.5
2018-Jul-21 16:00N 44°07' E 028°39'2 3.1
2018-Jul-21 15:30N 44°09' E 028°40'1 2.1
2018-Jul-21 15:00N 44°10' E 028°39'1 1.1
2018-Jul-21 14:28N 44°09' E 028°39'1 1.2
2018-Jul-21 14:00N 44°09' E 028°40'2 3.2
2018-Jul-21 13:30N 44°08' E 028°41'1 2.9
2018-Jul-21 13:00N 44°06' E 028°41'1 2.8
2018-Jul-21 12:30N 44°06' E 028°39'1 2.3
2018-Jul-21 11:58N 44°06' E 028°37'0 0.0
2018-Jul-21 11:22N 44°06' E 028°37'0 0.3
2018-Jul-21 11:00N 44°06' E 028°37'1 2.7
2018-Jul-21 10:30N 44°06' E 028°35'2 0.2
2018-Jul-21 03:46N 44°06' E 028°33'1 4.2
2018-Jul-21 03:30N 44°06' E 028°35'2 3.9
2018-Jul-21 03:00N 44°06' E 028°37'0 0.9
2018-Jul-21 02:29N 44°06' E 028°38'1 1.1
2018-Jul-21 01:58N 44°06' E 028°39'0 0.0
2018-Jul-21 01:28N 44°06' E 028°39'0 0.0
2018-Jul-21 00:58N 44°06' E 028°39'0 0.0
2018-Jul-21 00:28N 44°06' E 028°39'0 0.0
2018-Jul-20 23:58N 44°06' E 028°39'0 0.0
2018-Jul-20 23:28N 44°06' E 028°39'0 0.0
2018-Jul-20 22:55N 44°06' E 028°39'0 0.0
2018-Jul-20 22:28N 44°06' E 028°39'0 0.0
2018-Jul-20 21:58N 44°06' E 028°39'0 0.0
2018-Jul-20 21:28N 44°06' E 028°39'0 0.0
2018-Jul-20 20:58N 44°06' E 028°39'0 0.0
2018-Jul-20 20:28N 44°06' E 028°39'0 0.0
2018-Jul-20 19:58N 44°06' E 028°39'0 0.1
2018-Jul-20 19:30N 44°06' E 028°39'1 2.7
2018-Jul-20 19:00N 44°08' E 028°39'1 2.9
2018-Jul-20 18:30N 44°09' E 028°40'1 2.1
2018-Jul-20 18:00N 44°09' E 028°39'1 2.2
2018-Jul-20 17:30N 44°10' E 028°39'0 0.4
2018-Jul-20 16:59N 44°10' E 028°39'2 3.2
2018-Jul-20 16:30N 44°09' E 028°40'2 4.2
2018-Jul-20 16:00N 44°07' E 028°41'2 3.2
2018-Jul-20 15:30N 44°07' E 028°39'1 1.4
2018-Jul-20 14:59N 44°07' E 028°39'2 4.0
2018-Jul-20 14:30N 44°09' E 028°39'0 0.4
2018-Jul-20 13:59N 44°09' E 028°39'1 1.6
2018-Jul-20 13:30N 44°09' E 028°40'1 2.9
2018-Jul-20 13:00N 44°08' E 028°39'2 3.3
2018-Jul-20 12:30N 44°06' E 028°38'1 1.3
2018-Jul-20 11:57N 44°06' E 028°37'0 0.7
2018-Jul-20 11:30N 44°06' E 028°37'0 0.3
2018-Jul-20 10:59N 44°06' E 028°37'0 0.0
2018-Jul-20 10:29N 44°06' E 028°37'0 0.0
2018-Jul-20 09:56N 44°06' E 028°37'1 2.4
2018-Jul-20 09:30N 44°06' E 028°35'9 2.8
2018-Jul-20 06:07N 44°11' E 028°24'8 2.7
2018-Jul-20 03:10N 44°06' E 028°33'1 5.1
2018-Jul-20 02:59N 44°06' E 028°34'2 4.9
2018-Jul-20 02:30N 44°06' E 028°37'0 0.9
2018-Jul-20 02:00N 44°06' E 028°38'1 1.5
2018-Jul-20 01:30N 44°06' E 028°39'0 0.0
2018-Jul-20 01:00N 44°06' E 028°39'0 0.0
2018-Jul-20 00:24N 44°06' E 028°39'0 0.0
2018-Jul-20 00:00N 44°06' E 028°39'0 0.0
2018-Jul-19 23:30N 44°06' E 028°39'0 0.0
2018-Jul-19 23:00N 44°06' E 028°39'0 0.0
2018-Jul-19 22:30N 44°06' E 028°39'0 0.0
2018-Jul-19 22:00N 44°06' E 028°39'0 0.0
2018-Jul-19 21:27N 44°06' E 028°39'0 0.0
2018-Jul-19 20:57N 44°06' E 028°39'0 0.0
2018-Jul-19 20:30N 44°06' E 028°39'1 1.2
2018-Jul-19 20:00N 44°07' E 028°39'0 0.9
2018-Jul-19 19:30N 44°07' E 028°39'0 0.3
2018-Jul-19 18:59N 44°06' E 028°39'0 0.0
2018-Jul-19 18:29N 44°06' E 028°39'0 0.0
2018-Jul-19 17:56N 44°06' E 028°39'0 0.0
2018-Jul-19 17:29N 44°06' E 028°39'0 0.0
2018-Jul-19 16:59N 44°06' E 028°39'0 0.0
2018-Jul-19 16:29N 44°06' E 028°39'0 0.0
2018-Jul-19 15:56N 44°06' E 028°39'0 0.0
2018-Jul-19 15:30N 44°06' E 028°39'1 2.4
2018-Jul-19 15:00N 44°08' E 028°39'1 1.5
2018-Jul-19 14:00N 44°09' E 028°39'0 0.0
2018-Jul-19 13:27N 44°09' E 028°39'0 0.0
2018-Jul-19 13:00N 44°09' E 028°39'1 1.1
2018-Jul-19 12:30N 44°10' E 028°39'0 0.1
2018-Jul-19 12:00N 44°10' E 028°39'1 1.7
2018-Jul-19 11:30N 44°09' E 028°39'1 1.4
2018-Jul-19 11:00N 44°10' E 028°39'1 2.7
2018-Jul-19 10:31N 44°09' E 028°40'2 3.2
2018-Jul-19 09:59N 44°07' E 028°39'1 2.2
2018-Jul-19 09:30N 44°08' E 028°39'1 2.4
2018-Jul-19 09:00N 44°10' E 028°39'1 2.3
2018-Jul-19 08:30N 44°09' E 028°40'2 3.5
2018-Jul-19 08:00N 44°07' E 028°39'1 1.8
2018-Jul-19 07:29N 44°06' E 028°39'0 0.0
2018-Jul-19 06:56N 44°06' E 028°39'0 0.0
2018-Jul-19 06:29N 44°06' E 028°39'0 0.0
2018-Jul-19 06:00N 44°06' E 028°39'1 1.1
2018-Jul-19 05:30N 44°06' E 028°39'0 0.0
2018-Jul-19 04:57N 44°06' E 028°39'1 1.1
2018-Jul-19 04:28N 44°06' E 028°39'0 0.0
2018-Jul-19 03:55N 44°06' E 028°39'0 0.0
2018-Jul-19 03:25N 44°06' E 028°39'0 0.0
2018-Jul-19 02:58N 44°06' E 028°39'1 1.3
2018-Jul-19 02:30N 44°07' E 028°39'1 1.2
2018-Jul-19 01:56N 44°06' E 028°39'0 0.0
2018-Jul-19 01:26N 44°06' E 028°39'0 0.0
2018-Jul-19 00:56N 44°06' E 028°39'0 0.0
2018-Jul-19 00:29N 44°06' E 028°39'0 0.0
2018-Jul-18 23:59N 44°06' E 028°39'1 1.2
2018-Jul-18 23:30N 44°07' E 028°39'0 1.0
2018-Jul-18 22:59N 44°07' E 028°39'2 3.7
2018-Jul-18 22:30N 44°09' E 028°40'0 0.4
2018-Jul-18 21:58N 44°09' E 028°40'1 1.6
2018-Jul-18 21:30N 44°08' E 028°39'1 2.4
2018-Jul-18 20:59N 44°07' E 028°39'1 2.4
2018-Jul-18 20:30N 44°08' E 028°39'1 1.6
2018-Jul-18 20:00N 44°09' E 028°40'1 2.0
2018-Jul-18 19:30N 44°08' E 028°39'2 3.2
2018-Jul-18 19:00N 44°07' E 028°39'1 2.5
2018-Jul-18 18:29N 44°06' E 028°37'0 0.1
2018-Jul-18 17:53N 44°06' E 028°37'1 3.0
2018-Jul-18 17:30N 44°06' E 028°36'1 0.2
2018-Jul-18 11:17N 44°06' E 028°34'3 3.1
2018-Jul-18 10:28N 44°06' E 028°37'1 1.5
2018-Jul-18 09:59N 44°06' E 028°38'0 0.9
2018-Jul-18 09:29N 44°06' E 028°39'0 0.0
2018-Jul-18 08:59N 44°06' E 028°39'0 0.0
2018-Jul-18 08:29N 44°06' E 028°39'0 0.0
2018-Jul-18 07:59N 44°06' E 028°39'0 0.0
2018-Jul-18 07:29N 44°06' E 028°39'0 0.0
2018-Jul-18 06:56N 44°06' E 028°39'0 0.0
2018-Jul-18 06:29N 44°06' E 028°39'1 1.6
2018-Jul-18 06:00N 44°07' E 028°39'1 2.9
2018-Jul-18 05:30N 44°09' E 028°39'0 0.9
2018-Jul-18 05:00N 44°09' E 028°39'0 0.8
2018-Jul-18 04:30N 44°09' E 028°40'2 3.6
2018-Jul-18 04:00N 44°07' E 028°39'0 0.4
2018-Jul-18 03:28N 44°07' E 028°39'2 3.5
2018-Jul-18 03:00N 44°09' E 028°40'1 2.5
2018-Jul-18 02:29N 44°10' E 028°39'0 0.1
2018-Jul-18 01:56N 44°10' E 028°39'1 1.6
2018-Jul-18 01:28N 44°09' E 028°39'1 2.3
2018-Jul-18 01:00N 44°10' E 028°39'1 2.6
2018-Jul-18 00:30N 44°09' E 028°40'3 4.6
2018-Jul-17 23:56N 44°06' E 028°39'0 0.0
2018-Jul-17 23:20N 44°06' E 028°39'0 1.5
2018-Jul-17 23:00N 44°07' E 028°39'2 3.1
2018-Jul-17 22:30N 44°08' E 028°39'1 2.3
2018-Jul-17 22:00N 44°10' E 028°39'2 3.1
2018-Jul-17 21:30N 44°08' E 028°39'2 3.0
2018-Jul-17 20:58N 44°06' E 028°39'0 0.0
2018-Jul-17 20:28N 44°06' E 028°39'0 0.1
2018-Jul-17 20:00N 44°07' E 028°39'1 1.9
2018-Jul-17 19:30N 44°07' E 028°39'1 1.8
2018-Jul-17 19:00N 44°08' E 028°39'0 0.4
2018-Jul-17 18:30N 44°08' E 028°39'0 0.1
2018-Jul-17 18:00N 44°08' E 028°39'1 1.4
2018-Jul-17 17:30N 44°09' E 028°39'0 0.9
2018-Jul-17 17:00N 44°09' E 028°40'2 3.4
2018-Jul-17 16:30N 44°07' E 028°41'1 2.2
2018-Jul-17 16:00N 44°06' E 028°40'1 2.7
2018-Jul-17 15:30N 44°06' E 028°39'1 1.0
2018-Jul-17 14:30N 44°06' E 028°37'0 0.9
2018-Jul-17 14:00N 44°06' E 028°37'0 0.2
2018-Jul-17 13:27N 44°06' E 028°36'0 0.0
2018-Jul-17 12:39N 44°06' E 028°36'0 0.0
2018-Jul-17 12:24N 44°06' E 028°36'0 0.0
2018-Jul-17 11:57N 44°06' E 028°36'0 0.0
2018-Jul-17 11:18N 44°06' E 028°36'0 0.3
2018-Jul-17 11:00N 44°06' E 028°36'1 2.9
2018-Jul-17 10:29N 44°06' E 028°34'9 2.5
2018-Jul-17 06:54N 44°11' E 028°24'9 2.2
2018-Jul-17 03:05N 44°06' E 028°34'0 4.7
2018-Jul-17 03:00N 44°06' E 028°34'2 4.3
2018-Jul-17 02:30N 44°06' E 028°37'1 1.1
2018-Jul-17 02:00N 44°06' E 028°38'1 1.2
2018-Jul-17 01:30N 44°06' E 028°39'0 0.0
2018-Jul-17 00:57N 44°06' E 028°39'0 0.0
2018-Jul-17 00:30N 44°06' E 028°39'0 0.0
2018-Jul-16 23:30N 44°06' E 028°39'0 0.0
2018-Jul-16 23:00N 44°06' E 028°39'0 0.0
2018-Jul-16 22:30N 44°06' E 028°39'0 0.0
2018-Jul-16 22:00N 44°06' E 028°39'0 0.0
2018-Jul-16 21:30N 44°06' E 028°39'0 0.0
2018-Jul-16 21:00N 44°06' E 028°39'0 0.1
2018-Jul-16 20:30N 44°06' E 028°39'0 0.1
2018-Jul-16 19:59N 44°06' E 028°39'0 0.6
2018-Jul-16 19:30N 44°07' E 028°39'1 2.4
2018-Jul-16 18:59N 44°08' E 028°39'1 2.5
2018-Jul-16 18:30N 44°09' E 028°40'0 1.0
2018-Jul-16 18:00N 44°09' E 028°39'1 1.2
2018-Jul-16 17:30N 44°09' E 028°40'2 3.9
2018-Jul-16 17:00N 44°07' E 028°39'1 1.5
2018-Jul-16 16:31N 44°08' E 028°39'1 1.7
2018-Jul-16 16:00N 44°09' E 028°39'0 0.8
2018-Jul-16 15:30N 44°09' E 028°39'0 0.8
2018-Jul-16 14:55N 44°10' E 028°39'0 0.4
2018-Jul-16 14:29N 44°09' E 028°39'0 0.6
2018-Jul-16 14:00N 44°09' E 028°40'2 3.5
2018-Jul-16 13:30N 44°08' E 028°39'1 1.5
2018-Jul-16 13:00N 44°07' E 028°39'2 4.1
2018-Jul-16 12:30N 44°09' E 028°40'1 1.8
2018-Jul-16 12:00N 44°09' E 028°39'0 0.0
2018-Jul-16 11:29N 44°09' E 028°39'0 0.0
2018-Jul-16 10:59N 44°09' E 028°39'0 0.0
2018-Jul-16 10:29N 44°09' E 028°39'0 0.3
2018-Jul-16 10:00N 44°10' E 028°39'1 1.6
2018-Jul-16 09:30N 44°09' E 028°40'3 4.9
2018-Jul-16 08:58N 44°06' E 028°39'0 0.0
2018-Jul-16 08:28N 44°06' E 028°39'0 0.0
2018-Jul-16 07:58N 44°06' E 028°39'0 0.0
2018-Jul-16 07:28N 44°06' E 028°39'0 0.0
2018-Jul-16 06:58N 44°06' E 028°39'0 0.0
2018-Jul-16 06:28N 44°06' E 028°39'0 0.0
2018-Jul-16 05:58N 44°06' E 028°39'0 0.0
2018-Jul-16 05:28N 44°06' E 028°39'1 2.3
2018-Jul-16 04:58N 44°08' E 028°39'2 3.7
2018-Jul-16 04:30N 44°09' E 028°40'1 1.3
2018-Jul-16 04:00N 44°09' E 028°39'0 0.7
2018-Jul-16 03:28N 44°09' E 028°39'0 0.7
2018-Jul-16 02:56N 44°09' E 028°39'0 0.7
2018-Jul-16 02:31N 44°09' E 028°39'0 0.7
2018-Jul-16 02:00N 44°09' E 028°39'1 1.7
2018-Jul-16 01:30N 44°09' E 028°40'3 5.1
2018-Jul-16 00:58N 44°06' E 028°39'0 0.0
2018-Jul-16 00:28N 44°06' E 028°39'0 0.0
2018-Jul-15 23:58N 44°06' E 028°39'0 0.0
2018-Jul-15 23:28N 44°06' E 028°39'0 0.0
2018-Jul-15 22:58N 44°06' E 028°39'0 0.0
2018-Jul-15 22:28N 44°06' E 028°39'0 0.0
2018-Jul-15 21:55N 44°06' E 028°39'0 0.0
2018-Jul-15 21:28N 44°06' E 028°39'0 0.8
2018-Jul-15 21:00N 44°07' E 028°39'1 1.5
2018-Jul-15 20:29N 44°08' E 028°39'1 1.9
2018-Jul-15 20:00N 44°08' E 028°39'1 1.8
2018-Jul-15 19:30N 44°09' E 028°39'0 0.5
2018-Jul-15 18:58N 44°09' E 028°39'0 0.4
2018-Jul-15 18:28N 44°09' E 028°39'0 0.0
2018-Jul-15 17:58N 44°09' E 028°39'0 0.1
2018-Jul-15 17:30N 44°09' E 028°39'0 1.0
2018-Jul-15 17:00N 44°09' E 028°40'2 4.8
2018-Jul-15 16:30N 44°07' E 028°39'0 0.6
2018-Jul-15 15:59N 44°06' E 028°39'0 0.0
2018-Jul-15 15:26N 44°06' E 028°39'0 0.4
2018-Jul-15 15:00N 44°06' E 028°39'1 1.5
2018-Jul-15 14:28N 44°06' E 028°40'1 1.2
2018-Jul-15 14:00N 44°07' E 028°39'0 0.9
2018-Jul-15 13:30N 44°06' E 028°39'0 0.0
2018-Jul-15 12:57N 44°06' E 028°39'0 0.0
2018-Jul-15 12:27N 44°06' E 028°39'1 1.1
2018-Jul-15 12:00N 44°07' E 028°39'0 0.3
2018-Jul-15 11:30N 44°07' E 028°39'1 1.6
2018-Jul-15 11:00N 44°06' E 028°39'0 0.9
2018-Jul-15 10:30N 44°06' E 028°39'0 0.0
2018-Jul-15 10:00N 44°06' E 028°39'0 0.0
2018-Jul-15 09:30N 44°06' E 028°39'0 0.0
2018-Jul-15 09:00N 44°06' E 028°39'0 0.0
2018-Jul-15 08:30N 44°06' E 028°39'0 0.0
2018-Jul-15 08:00N 44°06' E 028°39'0 0.2
2018-Jul-15 07:29N 44°06' E 028°39'1 2.8
2018-Jul-15 07:00N 44°08' E 028°39'2 3.1
2018-Jul-15 06:30N 44°09' E 028°40'1 1.9
2018-Jul-15 06:00N 44°10' E 028°39'2 4.5
2018-Jul-15 05:30N 44°07' E 028°39'1 1.8
2018-Jul-15 05:00N 44°06' E 028°39'2 3.6
2018-Jul-15 04:30N 44°08' E 028°39'1 2.3
2018-Jul-15 04:00N 44°09' E 028°39'0 0.1
2018-Jul-15 03:30N 44°09' E 028°39'2 4.6
2018-Jul-15 03:00N 44°07' E 028°39'0 0.2
2018-Jul-15 02:29N 44°07' E 028°39'0 0.3
2018-Jul-15 02:00N 44°07' E 028°39'2 3.8
2018-Jul-15 01:30N 44°09' E 028°40'0 0.7
2018-Jul-15 01:00N 44°09' E 028°39'0 0.3
2018-Jul-15 00:30N 44°09' E 028°39'0 0.8
2018-Jul-15 00:00N 44°09' E 028°39'0 0.0
2018-Jul-14 23:30N 44°09' E 028°39'0 0.0
2018-Jul-14 23:00N 44°09' E 028°39'0 0.0
2018-Jul-14 22:30N 44°09' E 028°39'0 0.0
2018-Jul-14 22:00N 44°09' E 028°39'0 0.0
2018-Jul-14 21:30N 44°09' E 028°39'0 0.0
2018-Jul-14 21:00N 44°09' E 028°39'0 0.0
2018-Jul-14 20:30N 44°09' E 028°39'0 0.0
2018-Jul-14 20:00N 44°09' E 028°39'0 0.0
2018-Jul-14 19:30N 44°09' E 028°39'0 0.0
2018-Jul-14 19:00N 44°09' E 028°39'0 0.0
2018-Jul-14 18:30N 44°09' E 028°39'0 0.0
2018-Jul-14 18:00N 44°09' E 028°39'0 0.9
2018-Jul-14 17:29N 44°09' E 028°39'1 2.2
2018-Jul-14 17:00N 44°08' E 028°39'1 2.1
2018-Jul-14 16:30N 44°07' E 028°39'2 3.2
2018-Jul-14 15:58N 44°09' E 028°39'0 0.8
2018-Jul-14 15:30N 44°09' E 028°39'0 0.9
2018-Jul-14 14:58N 44°09' E 028°39'0 0.0
2018-Jul-14 13:58N 44°09' E 028°39'0 0.8
2018-Jul-14 13:29N 44°09' E 028°39'1 1.6
2018-Jul-14 13:00N 44°09' E 028°40'1 2.9
2018-Jul-14 12:30N 44°08' E 028°39'0 0.5
2018-Jul-14 11:58N 44°08' E 028°39'1 1.8
2018-Jul-14 11:30N 44°07' E 028°39'0 0.7
2018-Jul-14 10:58N 44°07' E 028°39'0 0.0
2018-Jul-14 10:29N 44°07' E 028°39'0 0.7
2018-Jul-14 10:00N 44°07' E 028°39'0 0.5
2018-Jul-14 09:30N 44°07' E 028°39'0 0.5
2018-Jul-14 08:58N 44°07' E 028°39'0 0.5
2018-Jul-14 08:30N 44°07' E 028°39'0 0.5
2018-Jul-14 07:58N 44°07' E 028°39'0 0.3
2018-Jul-14 07:30N 44°07' E 028°39'0 0.2
2018-Jul-14 06:57N 44°07' E 028°39'2 3.8
2018-Jul-14 06:30N 44°06' E 028°39'0 0.1
2018-Jul-14 05:58N 44°06' E 028°39'3 5.8
2018-Jul-14 05:30N 44°08' E 028°39'1 1.7
2018-Jul-14 04:59N 44°09' E 028°39'0 0.0
2018-Jul-14 04:29N 44°09' E 028°39'0 0.0
2018-Jul-14 03:59N 44°09' E 028°39'0 0.0
2018-Jul-14 03:29N 44°09' E 028°39'0 0.0
2018-Jul-14 02:59N 44°09' E 028°39'0 0.0
2018-Jul-14 02:29N 44°09' E 028°39'0 0.0
2018-Jul-14 01:56N 44°09' E 028°39'0 0.8
2018-Jul-14 01:28N 44°09' E 028°39'0 0.1
2018-Jul-14 00:59N 44°09' E 028°39'0 0.6
2018-Jul-14 00:29N 44°09' E 028°39'0 0.0
2018-Jul-13 23:59N 44°09' E 028°39'0 0.3
2018-Jul-13 23:30N 44°09' E 028°39'0 0.3
2018-Jul-13 23:00N 44°09' E 028°39'2 3.1
2018-Jul-13 22:30N 44°08' E 028°39'0 0.7
2018-Jul-13 22:00N 44°07' E 028°39'1 2.7
2018-Jul-13 21:30N 44°08' E 028°39'1 1.8
2018-Jul-13 20:58N 44°09' E 028°39'0 0.0
2018-Jul-13 20:28N 44°09' E 028°39'0 0.8
2018-Jul-13 20:00N 44°09' E 028°39'0 0.0
2018-Jul-13 19:30N 44°09' E 028°39'0 0.7
2018-Jul-13 18:56N 44°09' E 028°39'0 0.9
2018-Jul-13 18:28N 44°09' E 028°39'0 0.3
2018-Jul-13 18:00N 44°09' E 028°39'2 4.1
2018-Jul-13 17:30N 44°07' E 028°39'1 1.5
2018-Jul-13 16:57N 44°06' E 028°39'0 0.0
2018-Jul-13 16:30N 44°06' E 028°39'0 0.0
2018-Jul-13 16:00N 44°06' E 028°39'0 0.0
2018-Jul-13 15:30N 44°06' E 028°39'0 0.0
2018-Jul-13 15:00N 44°06' E 028°39'0 0.0
2018-Jul-13 14:00N 44°06' E 028°39'0 0.0
2018-Jul-13 13:30N 44°06' E 028°39'0 0.3
2018-Jul-13 13:00N 44°06' E 028°39'2 3.6
2018-Jul-13 12:30N 44°07' E 028°41'3 5.6
2018-Jul-13 12:00N 44°09' E 028°40'1 1.2
2018-Jul-13 11:30N 44°10' E 028°39'1 2.4
2018-Jul-13 11:00N 44°09' E 028°40'1 2.5
2018-Jul-13 10:27N 44°07' E 028°39'0 0.0
2018-Jul-13 10:00N 44°07' E 028°39'1 1.2
2018-Jul-13 09:29N 44°08' E 028°39'0 0.1
2018-Jul-13 09:00N 44°08' E 028°39'1 2.6
2018-Jul-13 08:30N 44°09' E 028°39'0 0.5
2018-Jul-13 08:00N 44°09' E 028°39'2 4.2
2018-Jul-13 07:31N 44°07' E 028°39'0 0.1
2018-Jul-13 07:01N 44°07' E 028°39'0 0.1
2018-Jul-13 06:30N 44°07' E 028°39'1 1.7
2018-Jul-13 06:00N 44°08' E 028°39'1 2.4
2018-Jul-13 05:30N 44°09' E 028°39'0 0.5
2018-Jul-13 05:00N 44°09' E 028°39'1 2.8
2018-Jul-13 04:30N 44°08' E 028°39'1 1.5
2018-Jul-13 04:00N 44°07' E 028°39'0 0.8
2018-Jul-13 03:30N 44°08' E 028°39'2 3.7
2018-Jul-13 03:00N 44°09' E 028°39'1 2.0
2018-Jul-13 02:30N 44°08' E 028°39'  
Track history (hours):
 
Tides and Currents Weather Stations Pressure Air Temp Water Temp Dewpoint Dewpoint Depression Visibility Wind Speed Wind Dir Waves Ship Positions

Rovinari 25

Last reported at 2018-Jul-23 02:00 UTC. Time now 2018-Jul-23 02:09 UTC.
Position N 44°08' E 028°39'.

Length 21 m.

Type: Port tender. MMSI: 264163087.

Date/timePositionNaut miles runAvg speedWind from/ knotsBaromVisibWave heightAir tempDewpointWater temp
2018-Jul-23 02:00N 44°08' E 028°39'1 1.4
2018-Jul-23 01:30N 44°09' E 028°39'0 0.0
2018-Jul-23 01:00N 44°09' E 028°39'0 0.0
2018-Jul-23 00:30N 44°09' E 028°39'0 0.0
2018-Jul-23 00:00N 44°09' E 028°39'0 0.0
2018-Jul-22 23:30N 44°09' E 028°39'0 0.0
2018-Jul-22 23:00N 44°09' E 028°39'0 0.0
2018-Jul-22 22:30N 44°09' E 028°39'0 0.0
2018-Jul-22 22:00N 44°09' E 028°39'0 0.0
2018-Jul-22 21:30N 44°09' E 028°39'0 0.0
2018-Jul-22 21:00N 44°09' E 028°39'0 0.0
2018-Jul-22 20:30N 44°09' E 028°39'0 0.0
2018-Jul-22 19:59N 44°09' E 028°39'0 0.5
2018-Jul-22 19:30N 44°09' E 028°39'0 0.5
2018-Jul-22 18:59N 44°09' E 028°39'0 0.0
2018-Jul-22 18:26N 44°09' E 028°39'0 0.2
2018-Jul-22 17:59N 44°09' E 028°39'1 1.4
2018-Jul-22 17:30N 44°08' E 028°39'1 2.0
2018-Jul-22 16:58N 44°07' E 028°39'0 0.0
2018-Jul-22 16:28N 44°07' E 028°39'2 3.6
2018-Jul-22 16:00N 44°09' E 028°40'1 0.5
2018-Jul-22 14:58N 44°09' E 028°39'0 1.0
2018-Jul-22 14:28N 44°09' E 028°39'1 1.7
2018-Jul-22 14:00N 44°08' E 028°40'2 4.3
2018-Jul-22 13:29N 44°06' E 028°39'0 0.1
2018-Jul-22 12:59N 44°06' E 028°39'0 0.0
2018-Jul-22 12:30N 44°06' E 028°39'1 1.9
2018-Jul-22 11:58N 44°07' E 028°39'0 0.5
2018-Jul-22 11:30N 44°07' E 028°39'0 0.2
2018-Jul-22 10:58N 44°07' E 028°39'1 2.5
2018-Jul-22 10:30N 44°08' E 028°39'1 1.8
2018-Jul-22 09:58N 44°09' E 028°39'0 0.8
2018-Jul-22 09:30N 44°09' E 028°39'2 3.0
2018-Jul-22 09:00N 44°08' E 028°39'0 0.8
2018-Jul-22 08:28N 44°07' E 028°39'0 0.4
2018-Jul-22 08:00N 44°08' E 028°39'1 1.9
2018-Jul-22 07:30N 44°08' E 028°39'0 0.9
2018-Jul-22 07:00N 44°08' E 028°39'2 3.2
2018-Jul-22 06:28N 44°06' E 028°39'0 0.0
2018-Jul-22 05:58N 44°06' E 028°39'0 0.0
2018-Jul-22 05:28N 44°06' E 028°39'0 0.0
2018-Jul-22 04:58N 44°06' E 028°39'1 2.2
2018-Jul-22 04:30N 44°07' E 028°40'1 2.1
2018-Jul-22 04:00N 44°06' E 028°39'1 1.7
2018-Jul-22 03:30N 44°07' E 028°40'0 0.2
2018-Jul-22 03:00N 44°07' E 028°40'0 0.3
2018-Jul-22 02:27N 44°06' E 028°40'0 0.3
2018-Jul-22 02:00N 44°06' E 028°40'1 2.0
2018-Jul-22 01:30N 44°06' E 028°39'3 5.0
2018-Jul-22 01:00N 44°09' E 028°40'1 1.3
2018-Jul-22 00:28N 44°09' E 028°39'0 0.9
2018-Jul-21 23:58N 44°09' E 028°39'1 2.1
2018-Jul-21 23:30N 44°09' E 028°40'2 3.7
2018-Jul-21 23:00N 44°07' E 028°39'1 1.7
2018-Jul-21 22:29N 44°06' E 028°39'0 0.0
2018-Jul-21 21:59N 44°06' E 028°39'0 0.0
2018-Jul-21 21:23N 44°06' E 028°39'0 0.0
2018-Jul-21 20:56N 44°06' E 028°39'0 0.0
2018-Jul-21 20:29N 44°06' E 028°39'0 0.0
2018-Jul-21 19:59N 44°06' E 028°39'1 1.9
2018-Jul-21 19:30N 44°07' E 028°39'1 2.3
2018-Jul-21 19:01N 44°08' E 028°39'1 1.2
2018-Jul-21 18:28N 44°09' E 028°39'1 2.3
2018-Jul-21 18:00N 44°08' E 028°39'2 3.0
2018-Jul-21 17:29N 44°06' E 028°39'0 0.0
2018-Jul-21 16:59N 44°06' E 028°39'0 0.9
2018-Jul-21 16:30N 44°07' E 028°39'0 0.5
2018-Jul-21 16:00N 44°07' E 028°39'2 3.1
2018-Jul-21 15:30N 44°09' E 028°40'1 2.1
2018-Jul-21 15:00N 44°10' E 028°39'1 1.1
2018-Jul-21 14:28N 44°09' E 028°39'1 1.2
2018-Jul-21 14:00N 44°09' E 028°40'2 3.2
2018-Jul-21 13:30N 44°08' E 028°41'1 2.9
2018-Jul-21 13:00N 44°06' E 028°41'1 2.8
2018-Jul-21 12:30N 44°06' E 028°39'1 2.3
2018-Jul-21 11:58N 44°06' E 028°37'0 0.0
2018-Jul-21 11:22N 44°06' E 028°37'0 0.3
2018-Jul-21 11:00N 44°06' E 028°37'1 2.7
2018-Jul-21 10:30N 44°06' E 028°35'2 0.2
2018-Jul-21 03:46N 44°06' E 028°33'1 4.2
2018-Jul-21 03:30N 44°06' E 028°35'2 3.9
2018-Jul-21 03:00N 44°06' E 028°37'0 0.9
2018-Jul-21 02:29N 44°06' E 028°38'1 1.1
2018-Jul-21 01:58N 44°06' E 028°39'0 0.0
2018-Jul-21 01:28N 44°06' E 028°39'0 0.0
2018-Jul-21 00:58N 44°06' E 028°39'0 0.0
2018-Jul-21 00:28N 44°06' E 028°39'0 0.0
2018-Jul-20 23:58N 44°06' E 028°39'0 0.0
2018-Jul-20 23:28N 44°06' E 028°39'0 0.0
2018-Jul-20 22:55N 44°06' E 028°39'0 0.0
2018-Jul-20 22:28N 44°06' E 028°39'0 0.0
2018-Jul-20 21:58N 44°06' E 028°39'0 0.0
2018-Jul-20 21:28N 44°06' E 028°39'0 0.0
2018-Jul-20 20:58N 44°06' E 028°39'0 0.0
2018-Jul-20 20:28N 44°06' E 028°39'0 0.0
2018-Jul-20 19:58N 44°06' E 028°39'0 0.1
2018-Jul-20 19:30N 44°06' E 028°39'1 2.7
2018-Jul-20 19:00N 44°08' E 028°39'1 2.9
2018-Jul-20 18:30N 44°09' E 028°40'1 2.1
2018-Jul-20 18:00N 44°09' E 028°39'1 2.2
2018-Jul-20 17:30N 44°10' E 028°39'0 0.4
2018-Jul-20 16:59N 44°10' E 028°39'2 3.2
2018-Jul-20 16:30N 44°09' E 028°40'2 4.2
2018-Jul-20 16:00N 44°07' E 028°41'2 3.2
2018-Jul-20 15:30N 44°07' E 028°39'1 1.4
2018-Jul-20 14:59N 44°07' E 028°39'2 4.0
2018-Jul-20 14:30N 44°09' E 028°39'0 0.4
2018-Jul-20 13:59N 44°09' E 028°39'1 1.6
2018-Jul-20 13:30N 44°09' E 028°40'1 2.9
2018-Jul-20 13:00N 44°08' E 028°39'2 3.3
2018-Jul-20 12:30N 44°06' E 028°38'1 1.3
2018-Jul-20 11:57N 44°06' E 028°37'0 0.7
2018-Jul-20 11:30N 44°06' E 028°37'0 0.3
2018-Jul-20 10:59N 44°06' E 028°37'0 0.0
2018-Jul-20 10:29N 44°06' E 028°37'0 0.0
2018-Jul-20 09:56N 44°06' E 028°37'1 2.4
2018-Jul-20 09:30N 44°06' E 028°35'9 2.8
2018-Jul-20 06:07N 44°11' E 028°24'8 2.7
2018-Jul-20 03:10N 44°06' E 028°33'1 5.1
2018-Jul-20 02:59N 44°06' E 028°34'2 4.9
2018-Jul-20 02:30N 44°06' E 028°37'0 0.9
2018-Jul-20 02:00N 44°06' E 028°38'1 1.5
2018-Jul-20 01:30N 44°06' E 028°39'0 0.0
2018-Jul-20 01:00N 44°06' E 028°39'0 0.0
2018-Jul-20 00:24N 44°06' E 028°39'0 0.0
2018-Jul-20 00:00N 44°06' E 028°39'0 0.0
2018-Jul-19 23:30N 44°06' E 028°39'0 0.0
2018-Jul-19 23:00N 44°06' E 028°39'0 0.0
2018-Jul-19 22:30N 44°06' E 028°39'0 0.0
2018-Jul-19 22:00N 44°06' E 028°39'0 0.0
2018-Jul-19 21:27N 44°06' E 028°39'0 0.0
2018-Jul-19 20:57N 44°06' E 028°39'0 0.0
2018-Jul-19 20:30N 44°06' E 028°39'1 1.2
2018-Jul-19 20:00N 44°07' E 028°39'0 0.9
2018-Jul-19 19:30N 44°07' E 028°39'0 0.3
2018-Jul-19 18:59N 44°06' E 028°39'0 0.0
2018-Jul-19 18:29N 44°06' E 028°39'0 0.0
2018-Jul-19 17:56N 44°06' E 028°39'0 0.0
2018-Jul-19 17:29N 44°06' E 028°39'0 0.0
2018-Jul-19 16:59N 44°06' E 028°39'0 0.0
2018-Jul-19 16:29N 44°06' E 028°39'0 0.0
2018-Jul-19 15:56N 44°06' E 028°39'0 0.0
2018-Jul-19 15:30N 44°06' E 028°39'1 2.4
2018-Jul-19 15:00N 44°08' E 028°39'1 1.5
2018-Jul-19 14:00N 44°09' E 028°39'0 0.0
2018-Jul-19 13:27N 44°09' E 028°39'0 0.0
2018-Jul-19 13:00N 44°09' E 028°39'1 1.1
2018-Jul-19 12:30N 44°10' E 028°39'0 0.1
2018-Jul-19 12:00N 44°10' E 028°39'1 1.7
2018-Jul-19 11:30N 44°09' E 028°39'1 1.4
2018-Jul-19 11:00N 44°10' E 028°39'1 2.7
2018-Jul-19 10:31N 44°09' E 028°40'2 3.2
2018-Jul-19 09:59N 44°07' E 028°39'1 2.2
2018-Jul-19 09:30N 44°08' E 028°39'1 2.4
2018-Jul-19 09:00N 44°10' E 028°39'1 2.3
2018-Jul-19 08:30N 44°09' E 028°40'2 3.5
2018-Jul-19 08:00N 44°07' E 028°39'1 1.8
2018-Jul-19 07:29N 44°06' E 028°39'0 0.0
2018-Jul-19 06:56N 44°06' E 028°39'0 0.0
2018-Jul-19 06:29N 44°06' E 028°39'0 0.0
2018-Jul-19 06:00N 44°06' E 028°39'1 1.1
2018-Jul-19 05:30N 44°06' E 028°39'0 0.0
2018-Jul-19 04:57N 44°06' E 028°39'1 1.1
2018-Jul-19 04:28N 44°06' E 028°39'0 0.0
2018-Jul-19 03:55N 44°06' E 028°39'0 0.0
2018-Jul-19 03:25N 44°06' E 028°39'0 0.0
2018-Jul-19 02:58N 44°06' E 028°39'1 1.3
2018-Jul-19 02:30N 44°07' E 028°39'1 1.2
2018-Jul-19 01:56N 44°06' E 028°39'0 0.0
2018-Jul-19 01:26N 44°06' E 028°39'0 0.0
2018-Jul-19 00:56N 44°06' E 028°39'0 0.0
2018-Jul-19 00:29N 44°06' E 028°39'0 0.0
2018-Jul-18 23:59N 44°06' E 028°39'1 1.2
2018-Jul-18 23:30N 44°07' E 028°39'0 1.0
2018-Jul-18 22:59N 44°07' E 028°39'2 3.7
2018-Jul-18 22:30N 44°09' E 028°40'0 0.4
2018-Jul-18 21:58N 44°09' E 028°40'1 1.6
2018-Jul-18 21:30N 44°08' E 028°39'1 2.4
2018-Jul-18 20:59N 44°07' E 028°39'1 2.4
2018-Jul-18 20:30N 44°08' E 028°39'1 1.6
2018-Jul-18 20:00N 44°09' E 028°40'1 2.0
2018-Jul-18 19:30N 44°08' E 028°39'2 3.2
2018-Jul-18 19:00N 44°07' E 028°39'1 2.5
2018-Jul-18 18:29N 44°06' E 028°37'0 0.1
2018-Jul-18 17:53N 44°06' E 028°37'1 3.0
2018-Jul-18 17:30N 44°06' E 028°36'1 0.2
2018-Jul-18 11:17N 44°06' E 028°34'3 3.1
2018-Jul-18 10:28N 44°06' E 028°37'1 1.5
2018-Jul-18 09:59N 44°06' E 028°38'0 0.9
2018-Jul-18 09:29N 44°06' E 028°39'0 0.0
2018-Jul-18 08:59N 44°06' E 028°39'0 0.0
2018-Jul-18 08:29N 44°06' E 028°39'0 0.0
2018-Jul-18 07:59N 44°06' E 028°39'0 0.0
2018-Jul-18 07:29N 44°06' E 028°39'0 0.0
2018-Jul-18 06:56N 44°06' E 028°39'0 0.0
2018-Jul-18 06:29N 44°06' E 028°39'1 1.6
2018-Jul-18 06:00N 44°07' E 028°39'1 2.9
2018-Jul-18 05:30N 44°09' E 028°39'0 0.9
2018-Jul-18 05:00N 44°09' E 028°39'0 0.8
2018-Jul-18 04:30N 44°09' E 028°40'2 3.6
2018-Jul-18 04:00N 44°07' E 028°39'0 0.4
2018-Jul-18 03:28N 44°07' E 028°39'2 3.5
2018-Jul-18 03:00N 44°09' E 028°40'1 2.5
2018-Jul-18 02:29N 44°10' E 028°39'0 0.1
2018-Jul-18 01:56N 44°10' E 028°39'1 1.6
2018-Jul-18 01:28N 44°09' E 028°39'1 2.3
2018-Jul-18 01:00N 44°10' E 028°39'1 2.6
2018-Jul-18 00:30N 44°09' E 028°40'3 4.6
2018-Jul-17 23:56N 44°06' E 028°39'0 0.0
2018-Jul-17 23:20N 44°06' E 028°39'0 1.5
2018-Jul-17 23:00N 44°07' E 028°39'2 3.1
2018-Jul-17 22:30N 44°08' E 028°39'1 2.3
2018-Jul-17 22:00N 44°10' E 028°39'2 3.1
2018-Jul-17 21:30N 44°08' E 028°39'2 3.0
2018-Jul-17 20:58N 44°06' E 028°39'0 0.0
2018-Jul-17 20:28N 44°06' E 028°39'0 0.1
2018-Jul-17 20:00N 44°07' E 028°39'1 1.9
2018-Jul-17 19:30N 44°07' E 028°39'1 1.8
2018-Jul-17 19:00N 44°08' E 028°39'0 0.4
2018-Jul-17 18:30N 44°08' E 028°39'0 0.1
2018-Jul-17 18:00N 44°08' E 028°39'1 1.4
2018-Jul-17 17:30N 44°09' E 028°39'0 0.9
2018-Jul-17 17:00N 44°09' E 028°40'2 3.4
2018-Jul-17 16:30N 44°07' E 028°41'1 2.2
2018-Jul-17 16:00N 44°06' E 028°40'1 2.7
2018-Jul-17 15:30N 44°06' E 028°39'1 1.0
2018-Jul-17 14:30N 44°06' E 028°37'0 0.9
2018-Jul-17 14:00N 44°06' E 028°37'0 0.2
2018-Jul-17 13:27N 44°06' E 028°36'0 0.0
2018-Jul-17 12:39N 44°06' E 028°36'0 0.0
2018-Jul-17 12:24N 44°06' E 028°36'0 0.0
2018-Jul-17 11:57N 44°06' E 028°36'0 0.0
2018-Jul-17 11:18N 44°06' E 028°36'0 0.3
2018-Jul-17 11:00N 44°06' E 028°36'1 2.9
2018-Jul-17 10:29N 44°06' E 028°34'9 2.5
2018-Jul-17 06:54N 44°11' E 028°24'9 2.2
2018-Jul-17 03:05N 44°06' E 028°34'0 4.7
2018-Jul-17 03:00N 44°06' E 028°34'2 4.3
2018-Jul-17 02:30N 44°06' E 028°37'1 1.1
2018-Jul-17 02:00N 44°06' E 028°38'1 1.2
2018-Jul-17 01:30N 44°06' E 028°39'0 0.0
2018-Jul-17 00:57N 44°06' E 028°39'0 0.0
2018-Jul-17 00:30N 44°06' E 028°39'0 0.0
2018-Jul-16 23:30N 44°06' E 028°39'0 0.0
2018-Jul-16 23:00N 44°06' E 028°39'0 0.0
2018-Jul-16 22:30N 44°06' E 028°39'0 0.0
2018-Jul-16 22:00N 44°06' E 028°39'0 0.0
2018-Jul-16 21:30N 44°06' E 028°39'0 0.0
2018-Jul-16 21:00N 44°06' E 028°39'0 0.1
2018-Jul-16 20:30N 44°06' E 028°39'0 0.1
2018-Jul-16 19:59N 44°06' E 028°39'0 0.6
2018-Jul-16 19:30N 44°07' E 028°39'1 2.4
2018-Jul-16 18:59N 44°08' E 028°39'1 2.5
2018-Jul-16 18:30N 44°09' E 028°40'0 1.0
2018-Jul-16 18:00N 44°09' E 028°39'1 1.2
2018-Jul-16 17:30N 44°09' E 028°40'2 3.9
2018-Jul-16 17:00N 44°07' E 028°39'1 1.5
2018-Jul-16 16:31N 44°08' E 028°39'1 1.7
2018-Jul-16 16:00N 44°09' E 028°39'0 0.8
2018-Jul-16 15:30N 44°09' E 028°39'0 0.8
2018-Jul-16 14:55N 44°10' E 028°39'0 0.4
2018-Jul-16 14:29N 44°09' E 028°39'0 0.6
2018-Jul-16 14:00N 44°09' E 028°40'2 3.5
2018-Jul-16 13:30N 44°08' E 028°39'1 1.5
2018-Jul-16 13:00N 44°07' E 028°39'2 4.1
2018-Jul-16 12:30N 44°09' E 028°40'1 1.8
2018-Jul-16 12:00N 44°09' E 028°39'0 0.0
2018-Jul-16 11:29N 44°09' E 028°39'0 0.0
2018-Jul-16 10:59N 44°09' E 028°39'0 0.0
2018-Jul-16 10:29N 44°09' E 028°39'0 0.3
2018-Jul-16 10:00N 44°10' E 028°39'1 1.6
2018-Jul-16 09:30N 44°09' E 028°40'3 4.9
2018-Jul-16 08:58N 44°06' E 028°39'0 0.0
2018-Jul-16 08:28N 44°06' E 028°39'0 0.0
2018-Jul-16 07:58N 44°06' E 028°39'0 0.0
2018-Jul-16 07:28N 44°06' E 028°39'0 0.0
2018-Jul-16 06:58N 44°06' E 028°39'0 0.0
2018-Jul-16 06:28N 44°06' E 028°39'0 0.0
2018-Jul-16 05:58N 44°06' E 028°39'0 0.0
2018-Jul-16 05:28N 44°06' E 028°39'1 2.3
2018-Jul-16 04:58N 44°08' E 028°39'2 3.7
2018-Jul-16 04:30N 44°09' E 028°40'1 1.3
2018-Jul-16 04:00N 44°09' E 028°39'0 0.7
2018-Jul-16 03:28N 44°09' E 028°39'0 0.7
2018-Jul-16 02:56N 44°09' E 028°39'0 0.7
2018-Jul-16 02:31N 44°09' E 028°39'0 0.7
2018-Jul-16 02:00N 44°09' E 028°39'1 1.7
2018-Jul-16 01:30N 44°09' E 028°40'3 5.1
2018-Jul-16 00:58N 44°06' E 028°39'0 0.0
2018-Jul-16 00:28N 44°06' E 028°39'0 0.0
2018-Jul-15 23:58N 44°06' E 028°39'0 0.0
2018-Jul-15 23:28N 44°06' E 028°39'0 0.0
2018-Jul-15 22:58N 44°06' E 028°39'0 0.0
2018-Jul-15 22:28N 44°06' E 028°39'0 0.0
2018-Jul-15 21:55N 44°06' E 028°39'0 0.0
2018-Jul-15 21:28N 44°06' E 028°39'0 0.8
2018-Jul-15 21:00N 44°07' E 028°39'1 1.5
2018-Jul-15 20:29N 44°08' E 028°39'1 1.9
2018-Jul-15 20:00N 44°08' E 028°39'1 1.8
2018-Jul-15 19:30N 44°09' E 028°39'0 0.5
2018-Jul-15 18:58N 44°09' E 028°39'0 0.4
2018-Jul-15 18:28N 44°09' E 028°39'0 0.0
2018-Jul-15 17:58N 44°09' E 028°39'0 0.1
2018-Jul-15 17:30N 44°09' E 028°39'0 1.0
2018-Jul-15 17:00N 44°09' E 028°40'2 4.8
2018-Jul-15 16:30N 44°07' E 028°39'0 0.6
2018-Jul-15 15:59N 44°06' E 028°39'0 0.0
2018-Jul-15 15:26N 44°06' E 028°39'0 0.4
2018-Jul-15 15:00N 44°06' E 028°39'1 1.5
2018-Jul-15 14:28N 44°06' E 028°40'1 1.2
2018-Jul-15 14:00N 44°07' E 028°39'0 0.9
2018-Jul-15 13:30N 44°06' E 028°39'0 0.0
2018-Jul-15 12:57N 44°06' E 028°39'0 0.0
2018-Jul-15 12:27N 44°06' E 028°39'1 1.1
2018-Jul-15 12:00N 44°07' E 028°39'0 0.3
2018-Jul-15 11:30N 44°07' E 028°39'1 1.6
2018-Jul-15 11:00N 44°06' E 028°39'0 0.9
2018-Jul-15 10:30N 44°06' E 028°39'0 0.0
2018-Jul-15 10:00N 44°06' E 028°39'0 0.0
2018-Jul-15 09:30N 44°06' E 028°39'0 0.0
2018-Jul-15 09:00N 44°06' E 028°39'0 0.0
2018-Jul-15 08:30N 44°06' E 028°39'0 0.0
2018-Jul-15 08:00N 44°06' E 028°39'0 0.2
2018-Jul-15 07:29N 44°06' E 028°39'1 2.8
2018-Jul-15 07:00N 44°08' E 028°39'2 3.1
2018-Jul-15 06:30N 44°09' E 028°40'1 1.9
2018-Jul-15 06:00N 44°10' E 028°39'2 4.5
2018-Jul-15 05:30N 44°07' E 028°39'1 1.8
2018-Jul-15 05:00N 44°06' E 028°39'2 3.6
2018-Jul-15 04:30N 44°08' E 028°39'1 2.3
2018-Jul-15 04:00N 44°09' E 028°39'0 0.1
2018-Jul-15 03:30N 44°09' E 028°39'2 4.6
2018-Jul-15 03:00N 44°07' E 028°39'0 0.2
2018-Jul-15 02:29N 44°07' E 028°39'0 0.3
2018-Jul-15 02:00N 44°07' E 028°39'2 3.8
2018-Jul-15 01:30N 44°09' E 028°40'0 0.7
2018-Jul-15 01:00N 44°09' E 028°39'0 0.3
2018-Jul-15 00:30N 44°09' E 028°39'0 0.8
2018-Jul-15 00:00N 44°09' E 028°39'0 0.0
2018-Jul-14 23:30N 44°09' E 028°39'0 0.0
2018-Jul-14 23:00N 44°09' E 028°39'0 0.0
2018-Jul-14 22:30N 44°09' E 028°39'0 0.0
2018-Jul-14 22:00N 44°09' E 028°39'0 0.0
2018-Jul-14 21:30N 44°09' E 028°39'0 0.0
2018-Jul-14 21:00N 44°09' E 028°39'0 0.0
2018-Jul-14 20:30N 44°09' E 028°39'0 0.0
2018-Jul-14 20:00N 44°09' E 028°39'0 0.0
2018-Jul-14 19:30N 44°09' E 028°39'0 0.0
2018-Jul-14 19:00N 44°09' E 028°39'0 0.0
2018-Jul-14 18:30N 44°09' E 028°39'0 0.0
2018-Jul-14 18:00N 44°09' E 028°39'0 0.9
2018-Jul-14 17:29N 44°09' E 028°39'1 2.2
2018-Jul-14 17:00N 44°08' E 028°39'1 2.1
2018-Jul-14 16:30N 44°07' E 028°39'2 3.2
2018-Jul-14 15:58N 44°09' E 028°39'0 0.8
2018-Jul-14 15:30N 44°09' E 028°39'0 0.9
2018-Jul-14 14:58N 44°09' E 028°39'0 0.0
2018-Jul-14 13:58N 44°09' E 028°39'0 0.8
2018-Jul-14 13:29N 44°09' E 028°39'1 1.6
2018-Jul-14 13:00N 44°09' E 028°40'1 2.9
2018-Jul-14 12:30N 44°08' E 028°39'0 0.5
2018-Jul-14 11:58N 44°08' E 028°39'1 1.8
2018-Jul-14 11:30N 44°07' E 028°39'0 0.7
2018-Jul-14 10:58N 44°07' E 028°39'0 0.0
2018-Jul-14 10:29N 44°07' E 028°39'0 0.7
2018-Jul-14 10:00N 44°07' E 028°39'0 0.5
2018-Jul-14 09:30N 44°07' E 028°39'0 0.5
2018-Jul-14 08:58N 44°07' E 028°39'0 0.5
2018-Jul-14 08:30N 44°07' E 028°39'0 0.5
2018-Jul-14 07:58N 44°07' E 028°39'0 0.3
2018-Jul-14 07:30N 44°07' E 028°39'0 0.2
2018-Jul-14 06:57N 44°07' E 028°39'2 3.8
2018-Jul-14 06:30N 44°06' E 028°39'0 0.1
2018-Jul-14 05:58N 44°06' E 028°39'3 5.8
2018-Jul-14 05:30N 44°08' E 028°39'1 1.7
2018-Jul-14 04:59N 44°09' E 028°39'0 0.0
2018-Jul-14 04:29N 44°09' E 028°39'0 0.0
2018-Jul-14 03:59N 44°09' E 028°39'0 0.0
2018-Jul-14 03:29N 44°09' E 028°39'0 0.0
2018-Jul-14 02:59N 44°09' E 028°39'0 0.0
2018-Jul-14 02:29N 44°09' E 028°39'0 0.0
2018-Jul-14 01:56N 44°09' E 028°39'0 0.8
2018-Jul-14 01:28N 44°09' E 028°39'0 0.1
2018-Jul-14 00:59N 44°09' E 028°39'0 0.6
2018-Jul-14 00:29N 44°09' E 028°39'0 0.0
2018-Jul-13 23:59N 44°09' E 028°39'0 0.3
2018-Jul-13 23:30N 44°09' E 028°39'0 0.3
2018-Jul-13 23:00N 44°09' E 028°39'2 3.1
2018-Jul-13 22:30N 44°08' E 028°39'0 0.7
2018-Jul-13 22:00N 44°07' E 028°39'1 2.7
2018-Jul-13 21:30N 44°08' E 028°39'1 1.8
2018-Jul-13 20:58N 44°09' E 028°39'0 0.0
2018-Jul-13 20:28N 44°09' E 028°39'0 0.8
2018-Jul-13 20:00N 44°09' E 028°39'0 0.0
2018-Jul-13 19:30N 44°09' E 028°39'0 0.7
2018-Jul-13 18:56N 44°09' E 028°39'0 0.9
2018-Jul-13 18:28N 44°09' E 028°39'0 0.3
2018-Jul-13 18:00N 44°09' E 028°39'2 4.1
2018-Jul-13 17:30N 44°07' E 028°39'1 1.5
2018-Jul-13 16:57N 44°06' E 028°39'0 0.0
2018-Jul-13 16:30N 44°06' E 028°39'0 0.0
2018-Jul-13 16:00N 44°06' E 028°39'0 0.0
2018-Jul-13 15:30N 44°06' E 028°39'0 0.0
2018-Jul-13 15:00N 44°06' E 028°39'0 0.0
2018-Jul-13 14:00N 44°06' E 028°39'0 0.0
2018-Jul-13 13:30N 44°06' E 028°39'0 0.3
2018-Jul-13 13:00N 44°06' E 028°39'2 3.6
2018-Jul-13 12:30N 44°07' E 028°41'3 5.6
2018-Jul-13 12:00N 44°09' E 028°40'1 1.2
2018-Jul-13 11:30N 44°10' E 028°39'1 2.4
2018-Jul-13 11:00N 44°09' E 028°40'1 2.5
2018-Jul-13 10:27N 44°07' E 028°39'0 0.0
2018-Jul-13 10:00N 44°07' E 028°39'1 1.2
2018-Jul-13 09:29N 44°08' E 028°39'0 0.1
2018-Jul-13 09:00N 44°08' E 028°39'1 2.6
2018-Jul-13 08:30N 44°09' E 028°39'0 0.5
2018-Jul-13 08:00N 44°09' E 028°39'2 4.2
2018-Jul-13 07:31N 44°07' E 028°39'0 0.1
2018-Jul-13 07:01N 44°07' E 028°39'0 0.1
2018-Jul-13 06:30N 44°07' E 028°39'1 1.7
2018-Jul-13 06:00N 44°08' E 028°39'1 2.4
2018-Jul-13 05:30N 44°09' E 028°39'0 0.5
2018-Jul-13 05:00N 44°09' E 028°39'1 2.8
2018-Jul-13 04:30N 44°08' E 028°39'1 1.5
2018-Jul-13 04:00N 44°07' E 028°39'0 0.8
2018-Jul-13 03:30N 44°08' E 028°39'2 3.7
2018-Jul-13 03:00N 44°09' E 028°39'1 2.0
2018-Jul-13 02:30N 44°08' E 028°39'  

Dump ship's entire track history